Midnight Wolf — HO7969 — position and weather

sailwx.info

Track history (hours):
 
Tides and Currents Weather Stations Pressure Air Temp Water Temp Dewpoint Dewpoint Depression Visibility Wind Speed Wind Dir Waves Ship Positions

Midnight Wolf

Last reported at 2016-Jun-27 14:19 UTC. Time now 2016-Jun-30 01:36 UTC.
Position N 18°25' W 064°36'.

Length 51 m; draft 4 m.

Type: Cargo ship. MMSI: 351880000.

Date/timePositionNaut miles runAvg speedWind from/ knotsBaromVisibWave heightAir tempDewpointWater temp
2016-Jun-27 14:19N 18°25' W 064°36'1 1.4
2016-Jun-27 13:33N 18°24' W 064°37'5 3.6
2016-Jun-27 12:14N 18°20' W 064°39'2 3.3
2016-Jun-27 11:31N 18°18' W 064°41'2 0.9
2016-Jun-27 09:30N 18°17' W 064°43'4 4.6
2016-Jun-27 08:32N 18°17' W 064°47'6 6.6
2016-Jun-27 07:33N 18°18' W 064°54'3 0.1
2016-Jun-26 10:31N 18°17' W 064°51'10 7.7
2016-Jun-26 09:16N 18°18' W 064°41'5 7.5
2016-Jun-26 08:33N 18°22' W 064°37'  
2016-Jun-22 22:33N 18°25' W 064°36'2 2.1
2016-Jun-22 21:31N 18°23' W 064°37'0 0.0
2016-Jun-22 15:33N 18°22' W 064°37'2 1.9
2016-Jun-22 14:15N 18°23' W 064°39'3 0.2
2016-Jun-21 20:30N 18°25' W 064°36'2 2.2
2016-Jun-21 19:33N 18°23' W 064°38'8 3.2
2016-Jun-21 17:13N 18°26' W 064°30'5 7.1
2016-Jun-21 16:27N 18°25' W 064°36'0 0.0
2016-Jun-20 20:33N 18°25' W 064°36'2 0.6
2016-Jun-20 17:32N 18°25' W 064°34'2 0.3
2016-Jun-20 10:11N 18°25' W 064°36'4 7.0
2016-Jun-20 09:33N 18°21' W 064°39'6 5.9
2016-Jun-20 08:31N 18°17' W 064°44'5 5.4
2016-Jun-20 07:33N 18°17' W 064°49'3 0.1
2016-Jun-19 10:33N 18°17' W 064°52'9 7.8
2016-Jun-19 09:26N 18°17' W 064°43'6 7.0
2016-Jun-19 08:31N 18°21' W 064°38'  
Track history (hours):
 
Tides and Currents Weather Stations Pressure Air Temp Water Temp Dewpoint Dewpoint Depression Visibility Wind Speed Wind Dir Waves Ship Positions

Midnight Wolf

Last reported at 2016-Jun-27 14:19 UTC. Time now 2016-Jun-30 01:36 UTC.
Position N 18°25' W 064°36'.

Length 51 m; draft 4 m.

Type: Cargo ship. MMSI: 351880000.

Date/timePositionNaut miles runAvg speedWind from/ knotsBaromVisibWave heightAir tempDewpointWater temp
2016-Jun-27 14:19N 18°25' W 064°36'1 1.4
2016-Jun-27 13:33N 18°24' W 064°37'5 3.6
2016-Jun-27 12:14N 18°20' W 064°39'2 3.3
2016-Jun-27 11:31N 18°18' W 064°41'2 0.9
2016-Jun-27 09:30N 18°17' W 064°43'4 4.6
2016-Jun-27 08:32N 18°17' W 064°47'6 6.6
2016-Jun-27 07:33N 18°18' W 064°54'3 0.1
2016-Jun-26 10:31N 18°17' W 064°51'10 7.7
2016-Jun-26 09:16N 18°18' W 064°41'5 7.5
2016-Jun-26 08:33N 18°22' W 064°37'  
2016-Jun-22 22:33N 18°25' W 064°36'2 2.1
2016-Jun-22 21:31N 18°23' W 064°37'0 0.0
2016-Jun-22 15:33N 18°22' W 064°37'2 1.9
2016-Jun-22 14:15N 18°23' W 064°39'3 0.2
2016-Jun-21 20:30N 18°25' W 064°36'2 2.2
2016-Jun-21 19:33N 18°23' W 064°38'8 3.2
2016-Jun-21 17:13N 18°26' W 064°30'5 7.1
2016-Jun-21 16:27N 18°25' W 064°36'0 0.0
2016-Jun-20 20:33N 18°25' W 064°36'2 0.6
2016-Jun-20 17:32N 18°25' W 064°34'2 0.3
2016-Jun-20 10:11N 18°25' W 064°36'4 7.0
2016-Jun-20 09:33N 18°21' W 064°39'6 5.9
2016-Jun-20 08:31N 18°17' W 064°44'5 5.4
2016-Jun-20 07:33N 18°17' W 064°49'3 0.1
2016-Jun-19 10:33N 18°17' W 064°52'9 7.8
2016-Jun-19 09:26N 18°17' W 064°43'6 7.0
2016-Jun-19 08:31N 18°21' W 064°38'  

Dump ship's entire track history